createdAt,value
2023-06-19T00:01:25.339Z,4.80
2023-06-19T00:03:52.760Z,4.70
2023-06-19T00:06:20.153Z,5.35
2023-06-19T00:08:47.645Z,4.97
2023-06-19T00:11:15.029Z,4.65
2023-06-19T00:13:42.467Z,4.68
2023-06-19T00:16:09.902Z,4.70
2023-06-19T00:18:41.624Z,4.70
2023-06-19T00:21:09.911Z,4.97
2023-06-19T00:23:37.351Z,5.03
2023-06-19T00:26:05.198Z,4.32
2023-06-19T00:28:32.947Z,4.60
2023-06-19T00:31:00.329Z,4.80
2023-06-19T00:33:27.767Z,5.40
2023-06-19T00:35:56.474Z,4.90
2023-06-19T00:38:25.012Z,4.88
2023-06-19T00:40:52.410Z,5.75
2023-06-19T00:43:19.958Z,5.15
2023-06-19T00:45:47.417Z,5.20
2023-06-19T00:48:14.835Z,5.13
2023-06-19T00:50:42.292Z,4.75
2023-06-19T00:53:09.851Z,5.18
2023-06-19T00:55:38.227Z,4.85
2023-06-19T00:58:06.059Z,4.43
2023-06-19T01:00:33.519Z,4.75
2023-06-19T01:03:01.152Z,4.70
2023-06-19T01:05:28.822Z,4.47
2023-06-19T01:07:59.457Z,4.40
2023-06-19T01:10:29.197Z,5.20
2023-06-19T01:13:09.224Z,5.32
2023-06-19T01:15:37.526Z,4.47
2023-06-19T01:18:05.665Z,4.63
2023-06-19T01:20:34.600Z,5.00
2023-06-19T01:23:12.382Z,5.07
2023-06-19T01:25:40.737Z,4.68
2023-06-19T01:28:11.023Z,4.90
2023-06-19T01:30:39.566Z,4.93
2023-06-19T01:33:08.021Z,4.68
2023-06-19T01:35:37.188Z,5.15
2023-06-19T01:38:04.850Z,5.03
2023-06-19T01:40:33.081Z,4.68
2023-06-19T01:43:05.794Z,5.13
2023-06-19T01:45:33.401Z,5.38
2023-06-19T01:48:00.838Z,5.68
2023-06-19T01:50:28.412Z,5.07
2023-06-19T01:52:55.884Z,4.82
2023-06-19T01:55:23.433Z,4.60
2023-06-19T01:57:50.931Z,4.60
2023-06-19T02:00:18.645Z,5.32
2023-06-19T02:02:46.228Z,5.13
2023-06-19T02:05:14.530Z,5.82
2023-06-19T02:07:42.045Z,5.47
2023-06-19T02:10:09.715Z,5.10
2023-06-19T02:12:37.202Z,5.32
2023-06-19T02:15:04.872Z,4.72
2023-06-19T02:17:32.262Z,4.97
2023-06-19T02:19:59.676Z,5.38
2023-06-19T02:22:27.027Z,4.65
2023-06-19T02:24:54.405Z,5.20
2023-06-19T02:27:21.753Z,5.00
2023-06-19T02:29:49.137Z,4.93
2023-06-19T02:32:16.488Z,5.38
2023-06-19T02:34:43.857Z,5.15
2023-06-19T02:37:11.214Z,5.07
2023-06-19T02:39:38.590Z,5.28
2023-06-19T02:42:06.175Z,4.93
2023-06-19T02:44:33.694Z,4.82
2023-06-19T02:47:01.122Z,5.10
2023-06-19T02:49:28.577Z,5.45
2023-06-19T02:51:56.005Z,5.10
2023-06-19T02:54:23.366Z,5.63
2023-06-19T02:56:50.808Z,5.25
2023-06-19T02:59:18.187Z,5.13
2023-06-19T03:01:46.149Z,5.45
2023-06-19T03:04:14.179Z,5.22
2023-06-19T03:06:41.646Z,5.10
2023-06-19T03:09:13.400Z,5.40
2023-06-19T03:11:41.533Z,5.30
2023-06-19T03:14:10.014Z,5.70
2023-06-19T03:16:37.454Z,5.10
2023-06-19T03:19:05.103Z,5.38
2023-06-19T03:21:32.580Z,5.10
2023-06-19T03:23:59.975Z,5.45
2023-06-19T03:26:28.368Z,5.68
2023-06-19T03:28:55.755Z,5.53
2023-06-19T03:31:23.148Z,6.15
2023-06-19T03:33:50.517Z,5.45
2023-06-19T03:36:17.943Z,5.80
2023-06-19T03:38:45.300Z,5.18
2023-06-19T03:41:12.692Z,5.30
2023-06-19T03:43:40.766Z,5.90
2023-06-19T03:46:08.185Z,5.30
2023-06-19T03:48:35.659Z,5.57
2023-06-19T03:51:03.101Z,5.20
2023-06-19T03:53:30.452Z,5.85
2023-06-19T03:55:57.909Z,5.30
2023-06-19T03:58:25.260Z,4.90
2023-06-19T04:00:53.516Z,5.50
2023-06-19T04:03:21.271Z,5.05
2023-06-19T04:05:48.819Z,6.32
2023-06-19T04:08:16.201Z,5.85
2023-06-19T04:10:43.664Z,5.65
2023-06-19T04:13:11.084Z,5.50
2023-06-19T04:15:39.016Z,5.57
2023-06-19T04:18:06.476Z,5.47
2023-06-19T04:20:34.933Z,6.35
2023-06-19T04:23:02.314Z,5.65
2023-06-19T04:25:29.762Z,5.90
2023-06-19T04:27:57.085Z,6.45
2023-06-19T04:30:24.806Z,6.20
2023-06-19T04:32:54.497Z,6.05
2023-06-19T04:35:22.008Z,5.80
2023-06-19T04:37:50.108Z,6.22
2023-06-19T04:40:17.666Z,5.43
2023-06-19T04:42:45.145Z,5.75
2023-06-19T04:45:13.054Z,5.90
2023-06-19T04:47:52.482Z,5.88
2023-06-19T04:50:21.334Z,5.90
2023-06-19T04:52:52.244Z,5.40
2023-06-19T04:55:20.240Z,5.60
2023-06-19T04:57:47.859Z,6.03
2023-06-19T05:00:16.557Z,6.07
2023-06-19T05:02:46.152Z,6.03
2023-06-19T05:05:14.078Z,5.90
2023-06-19T05:07:41.856Z,6.20
2023-06-19T05:10:09.390Z,6.03
2023-06-19T05:12:37.180Z,5.55
2023-06-19T05:15:04.711Z,6.60
2023-06-19T05:17:32.221Z,6.47
2023-06-19T05:19:59.606Z,6.13
2023-06-19T05:22:28.119Z,5.90
2023-06-19T05:24:55.580Z,6.28
2023-06-19T05:27:23.005Z,6.90
2023-06-19T05:29:50.477Z,6.07
2023-06-19T05:32:17.817Z,6.65
2023-06-19T05:34:45.215Z,6.30
2023-06-19T05:37:12.585Z,7.25
2023-06-19T05:39:40.054Z,6.18
2023-06-19T05:42:07.679Z,6.40
2023-06-19T05:44:35.054Z,6.90
2023-06-19T05:47:02.410Z,6.32
2023-06-19T05:49:30.412Z,6.82
2023-06-19T05:52:00.369Z,6.30
2023-06-19T05:54:28.054Z,6.78
2023-06-19T05:56:55.484Z,7.43
2023-06-19T05:59:23.107Z,6.90
2023-06-19T06:01:52.036Z,6.95
2023-06-19T06:04:19.790Z,6.25
2023-06-19T06:06:47.236Z,6.43
2023-06-19T06:09:16.003Z,6.75
2023-06-19T06:11:43.544Z,6.72
2023-06-19T06:14:13.182Z,7.15
2023-06-19T06:16:40.890Z,6.82
2023-06-19T06:19:08.593Z,6.55
2023-06-19T06:21:36.172Z,7.03
2023-06-19T06:24:04.019Z,6.85
2023-06-19T06:26:31.451Z,6.55
2023-06-19T06:28:58.858Z,6.78
2023-06-19T06:31:26.253Z,8.68
2023-06-19T06:33:53.614Z,6.57
2023-06-19T06:36:33.695Z,6.85
2023-06-19T06:39:03.642Z,6.72
2023-06-19T06:41:31.049Z,7.10
2023-06-19T06:43:58.503Z,7.13
2023-06-19T06:46:26.036Z,7.72
2023-06-19T06:48:53.464Z,8.35
2023-06-19T06:51:20.888Z,6.80
2023-06-19T06:53:48.291Z,6.78
2023-06-19T06:56:15.648Z,7.78
2023-06-19T06:58:43.063Z,7.10
2023-06-19T07:01:10.862Z,6.90
2023-06-19T07:03:38.352Z,6.95
2023-06-19T07:06:05.763Z,7.18
2023-06-19T07:08:33.185Z,7.47
2023-06-19T07:11:00.606Z,6.53
2023-06-19T07:13:27.980Z,7.18
2023-06-19T07:15:55.334Z,7.05
2023-06-19T07:18:22.834Z,7.03
2023-06-19T07:20:50.208Z,7.28
2023-06-19T07:23:18.101Z,7.50
2023-06-19T07:25:47.181Z,7.20
2023-06-19T07:28:14.798Z,7.68
2023-06-19T07:30:42.208Z,7.70
2023-06-19T07:33:09.637Z,7.70
2023-06-19T07:35:37.096Z,6.95
2023-06-19T07:38:04.907Z,7.03
2023-06-19T07:40:32.336Z,6.70
2023-06-19T07:42:59.731Z,7.18
2023-06-19T07:45:27.108Z,6.70
2023-06-19T07:47:57.887Z,7.25
2023-06-19T07:50:27.548Z,7.13
2023-06-19T07:52:55.590Z,7.18
2023-06-19T07:55:22.963Z,7.20
2023-06-19T07:57:50.323Z,7.28
2023-06-19T08:00:17.852Z,7.22
2023-06-19T08:02:45.329Z,7.18
2023-06-19T08:05:13.203Z,6.88
2023-06-19T08:07:40.784Z,6.43
2023-06-19T08:10:13.999Z,7.00
2023-06-19T08:12:46.290Z,7.43
2023-06-19T08:15:16.892Z,7.07
2023-06-19T08:17:44.415Z,6.65
2023-06-19T08:20:12.170Z,7.15
2023-06-19T08:22:39.525Z,7.55
2023-06-19T08:25:07.436Z,6.57
2023-06-19T08:27:34.784Z,7.22
2023-06-19T08:30:02.199Z,7.05
2023-06-19T08:32:29.631Z,6.95
2023-06-19T08:34:57.185Z,7.47
2023-06-19T08:37:24.532Z,7.60
2023-06-19T08:39:51.926Z,7.63
2023-06-19T08:42:19.311Z,7.50
2023-06-19T08:44:46.739Z,6.97
2023-06-19T08:47:14.176Z,7.55
2023-06-19T08:49:41.642Z,7.63
2023-06-19T08:52:09.452Z,7.78
2023-06-19T08:54:45.349Z,7.97
2023-06-19T08:57:13.831Z,8.25
2023-06-19T08:59:41.380Z,7.70
2023-06-19T09:02:08.798Z,7.80
2023-06-19T09:04:36.293Z,7.57
2023-06-19T09:07:05.116Z,8.00
2023-06-19T09:09:34.238Z,7.28
2023-06-19T09:12:04.613Z,8.35
2023-06-19T09:14:35.166Z,8.30
2023-06-19T09:17:03.352Z,7.15
2023-06-19T09:19:30.962Z,7.53
2023-06-19T09:22:01.956Z,7.40
2023-06-19T09:24:35.535Z,7.38
2023-06-19T09:27:15.029Z,7.70
2023-06-19T09:29:43.395Z,8.52
2023-06-19T09:32:19.900Z,8.27
2023-06-19T09:34:47.692Z,7.88
2023-06-19T09:37:15.123Z,7.72
2023-06-19T09:39:42.803Z,8.07
2023-06-19T09:42:11.081Z,7.90
2023-06-19T09:44:46.860Z,7.50
2023-06-19T09:47:23.910Z,8.07
2023-06-19T09:49:55.620Z,7.88
2023-06-19T09:52:23.755Z,7.00
2023-06-19T09:54:55.146Z,7.13
2023-06-19T09:57:22.867Z,6.88
2023-06-19T09:59:52.027Z,7.22
2023-06-19T10:02:20.931Z,7.65
2023-06-19T10:04:50.732Z,7.05
2023-06-19T10:07:22.156Z,7.20
2023-06-19T10:10:03.378Z,7.47
2023-06-19T10:12:46.960Z,7.15
2023-06-19T10:15:21.237Z,7.20
2023-06-19T10:17:53.245Z,7.07
2023-06-19T10:20:33.821Z,7.57
2023-06-19T10:23:06.187Z,6.82
2023-06-19T10:25:34.806Z,7.55
2023-06-19T10:28:02.701Z,7.60
2023-06-19T10:30:35.538Z,7.50
2023-06-19T10:33:05.936Z,6.10
2023-06-19T10:35:40.381Z,6.38
2023-06-19T10:38:08.165Z,6.88
2023-06-19T10:40:35.600Z,6.50
2023-06-19T10:43:03.059Z,6.72
2023-06-19T10:45:30.522Z,6.80
2023-06-19T10:47:58.180Z,7.07
2023-06-19T10:50:26.513Z,6.97
2023-06-19T10:52:56.337Z,7.22
2023-06-19T10:55:23.751Z,7.38
2023-06-19T10:57:51.675Z,6.95
2023-06-19T11:00:29.584Z,6.90
2023-06-19T11:02:57.994Z,7.38
2023-06-19T11:05:26.420Z,8.15
2023-06-19T11:07:57.602Z,7.38
2023-06-19T11:10:26.427Z,7.43
2023-06-19T11:12:57.981Z,7.20
2023-06-19T11:15:35.497Z,7.35
2023-06-19T11:18:03.629Z,7.30
2023-06-19T11:20:31.741Z,7.10
2023-06-19T11:23:01.440Z,6.82
2023-06-19T11:25:38.650Z,6.95
2023-06-19T11:28:06.896Z,6.80
2023-06-19T11:30:35.452Z,6.78
2023-06-19T11:33:04.079Z,7.47
2023-06-19T11:35:40.480Z,7.55
2023-06-19T11:38:07.991Z,7.10
2023-06-19T11:40:41.970Z,6.65
2023-06-19T11:43:10.141Z,6.68
2023-06-19T11:45:47.950Z,7.32
2023-06-19T11:48:15.405Z,7.25
2023-06-19T11:50:42.872Z,7.10
2023-06-19T11:53:10.461Z,6.72
2023-06-19T11:55:39.633Z,6.75
2023-06-19T11:58:07.869Z,6.93
2023-06-19T12:00:35.253Z,6.43
2023-06-19T12:03:02.876Z,7.22
2023-06-19T12:05:30.385Z,7.40
2023-06-19T12:07:58.422Z,6.80
2023-06-19T12:10:26.072Z,6.72
2023-06-19T12:12:53.588Z,7.10
2023-06-19T12:15:21.216Z,6.88
2023-06-19T12:17:48.763Z,7.60
2023-06-19T12:20:16.270Z,7.75
2023-06-19T12:22:43.967Z,6.97
2023-06-19T12:25:12.035Z,6.78
2023-06-19T12:27:42.597Z,7.20
2023-06-19T12:30:10.418Z,6.50
2023-06-19T12:32:37.949Z,6.50
2023-06-19T12:35:05.630Z,7.30
2023-06-19T12:37:33.369Z,6.35
2023-06-19T12:40:00.753Z,6.53
2023-06-19T12:42:28.515Z,6.97
2023-06-19T12:44:55.903Z,6.60
2023-06-19T12:47:23.446Z,7.20
2023-06-19T12:49:50.897Z,7.40
2023-06-19T12:52:18.258Z,7.00
2023-06-19T12:54:45.597Z,7.28
2023-06-19T12:57:13.111Z,6.78
2023-06-19T12:59:40.541Z,6.82
2023-06-19T13:02:08.018Z,7.05
2023-06-19T13:04:35.524Z,6.80
2023-06-19T13:07:03.149Z,7.57
2023-06-19T13:09:31.227Z,6.85
2023-06-19T13:11:58.620Z,5.80
2023-06-19T13:14:25.992Z,5.80
2023-06-19T13:16:53.425Z,5.75
2023-06-19T13:19:20.846Z,5.68
2023-06-19T13:21:48.224Z,5.50
2023-06-19T13:24:15.701Z,6.00
2023-06-19T13:26:43.485Z,6.13
2023-06-19T13:29:11.232Z,6.10
2023-06-19T13:31:38.815Z,5.75
2023-06-19T13:34:06.295Z,5.72
2023-06-19T13:36:33.739Z,5.70
2023-06-19T13:39:01.184Z,5.32
2023-06-19T13:41:29.432Z,5.88
2023-06-19T13:43:57.390Z,6.35
2023-06-19T13:46:24.911Z,6.25
2023-06-19T13:48:53.131Z,6.18
2023-06-19T13:51:21.367Z,6.60
2023-06-19T13:53:49.067Z,5.43
2023-06-19T13:56:17.093Z,5.82
2023-06-19T13:58:44.512Z,6.03
2023-06-19T14:01:11.918Z,5.75
2023-06-19T14:03:40.952Z,5.40
2023-06-19T14:06:08.578Z,5.55
2023-06-19T14:08:36.100Z,4.75
2023-06-19T14:11:03.638Z,4.88
2023-06-19T14:13:31.064Z,4.80
2023-06-19T14:15:58.845Z,4.63
2023-06-19T14:18:26.242Z,4.70
2023-06-19T14:20:53.700Z,5.28
2023-06-19T14:23:21.165Z,5.13
2023-06-19T14:25:48.668Z,5.63
2023-06-19T14:28:16.597Z,6.20
2023-06-19T14:30:44.142Z,6.90
2023-06-19T14:33:16.250Z,7.18
2023-06-19T14:35:47.020Z,6.65
2023-06-19T14:38:15.587Z,7.05
2023-06-19T14:40:46.447Z,6.78
2023-06-19T14:43:13.855Z,6.35
2023-06-19T14:45:42.412Z,6.47
2023-06-19T14:48:09.920Z,6.80
2023-06-19T14:50:37.698Z,7.57
2023-06-19T14:53:05.277Z,7.25
2023-06-19T14:55:32.653Z,6.78
2023-06-19T14:58:00.131Z,6.95
2023-06-19T15:00:27.688Z,7.28
2023-06-19T15:02:55.353Z,7.68
2023-06-19T15:05:22.784Z,7.68
2023-06-19T15:07:50.165Z,7.43
2023-06-19T15:10:17.522Z,7.85
2023-06-19T15:12:44.914Z,7.93
2023-06-19T15:15:12.592Z,7.07
2023-06-19T15:17:40.044Z,7.25
2023-06-19T15:20:09.323Z,7.82
2023-06-19T15:22:38.269Z,7.65
2023-06-19T15:25:05.878Z,8.13
2023-06-19T15:27:33.330Z,7.45
2023-06-19T15:30:00.902Z,7.93
2023-06-19T15:32:28.339Z,7.43
2023-06-19T15:34:55.694Z,7.35
2023-06-19T15:37:23.101Z,7.22
2023-06-19T15:39:52.901Z,8.07
2023-06-19T15:42:20.314Z,7.63
2023-06-19T15:44:47.804Z,6.88
2023-06-19T15:47:15.541Z,7.30
2023-06-19T15:49:42.969Z,7.32
2023-06-19T15:52:10.457Z,7.28
2023-06-19T15:54:39.112Z,7.20
2023-06-19T15:57:06.616Z,7.18
2023-06-19T15:59:34.028Z,7.00
2023-06-19T16:02:01.436Z,6.90
2023-06-19T16:04:28.941Z,7.68
2023-06-19T16:06:56.804Z,7.45
2023-06-19T16:09:26.086Z,6.93
2023-06-19T16:11:54.933Z,7.20
2023-06-19T16:14:22.352Z,6.97
2023-06-19T16:16:50.078Z,6.88
2023-06-19T16:19:19.135Z,6.38
2023-06-19T16:21:48.860Z,7.30
2023-06-19T16:24:16.259Z,6.10
2023-06-19T16:26:43.890Z,7.30
2023-06-19T16:29:11.416Z,6.50
2023-06-19T16:31:41.788Z,6.43
2023-06-19T16:34:10.116Z,7.00
2023-06-19T16:36:37.499Z,6.40
2023-06-19T16:39:04.922Z,6.60
2023-06-19T16:41:32.362Z,6.35
2023-06-19T16:43:59.920Z,6.35
2023-06-19T16:46:27.404Z,6.15
2023-06-19T16:48:54.805Z,5.82
2023-06-19T16:51:22.230Z,6.03
2023-06-19T16:53:49.619Z,5.93
2023-06-19T16:56:17.033Z,6.15
2023-06-19T16:58:44.368Z,6.07
2023-06-19T17:01:13.531Z,6.30
2023-06-19T17:03:41.722Z,6.28
2023-06-19T17:06:09.146Z,5.43
2023-06-19T17:08:36.628Z,5.55
2023-06-19T17:11:04.112Z,4.82
2023-06-19T17:13:31.561Z,5.28
2023-06-19T17:15:59.037Z,4.88
2023-06-19T17:18:26.442Z,5.63
2023-06-19T17:20:53.829Z,5.45
2023-06-19T17:23:21.225Z,5.15
2023-06-19T17:25:48.578Z,5.75
2023-06-19T17:28:16.143Z,5.22
2023-06-19T17:30:43.574Z,5.63
2023-06-19T17:33:11.280Z,4.90
2023-06-19T17:35:38.634Z,5.75
2023-06-19T17:38:06.008Z,4.63
2023-06-19T17:40:33.393Z,5.35
2023-06-19T17:43:00.776Z,5.35
2023-06-19T17:45:28.138Z,4.75
2023-06-19T17:47:55.560Z,5.03
2023-06-19T17:50:23.191Z,5.10
2023-06-19T17:52:50.725Z,5.75
2023-06-19T17:55:18.102Z,4.72
2023-06-19T17:57:45.539Z,4.97
2023-06-19T18:00:13.248Z,5.00
2023-06-19T18:02:40.747Z,4.35
2023-06-19T18:05:08.299Z,4.60
2023-06-19T18:07:35.780Z,4.97
2023-06-19T18:10:03.166Z,4.32
2023-06-19T18:12:30.552Z,4.70
2023-06-19T18:14:57.991Z,4.20
2023-06-19T18:17:25.432Z,3.95
2023-06-19T18:19:52.934Z,4.60
2023-06-19T18:22:20.346Z,4.15
2023-06-19T18:24:47.945Z,4.00
2023-06-19T18:27:15.683Z,3.60
2023-06-19T18:29:43.122Z,3.92
2023-06-19T18:32:10.580Z,3.70
2023-06-19T18:34:38.031Z,3.85
2023-06-19T18:37:05.558Z,3.80
2023-06-19T18:39:35.659Z,3.67
2023-06-19T18:42:03.574Z,4.35
2023-06-19T18:44:31.015Z,4.20
2023-06-19T18:46:58.424Z,4.05
2023-06-19T18:49:25.948Z,3.95
2023-06-19T18:51:53.655Z,4.43
2023-06-19T18:54:21.068Z,4.05
2023-06-19T18:56:48.472Z,4.00
2023-06-19T18:59:15.919Z,3.90
2023-06-19T19:01:43.304Z,4.20
2023-06-19T19:04:10.782Z,4.35
2023-06-19T19:06:38.332Z,4.07
2023-06-19T19:09:05.847Z,4.00
2023-06-19T19:11:33.511Z,3.53
2023-06-19T19:14:00.925Z,4.15
2023-06-19T19:16:28.295Z,4.22
2023-06-19T19:18:55.692Z,4.32
2023-06-19T19:21:23.093Z,4.18
2023-06-19T19:23:50.454Z,4.32
2023-06-19T19:26:17.922Z,4.60
2023-06-19T19:28:45.277Z,4.78
2023-06-19T19:31:13.013Z,4.13
2023-06-19T19:33:40.680Z,4.28
2023-06-19T19:36:08.902Z,4.57
2023-06-19T19:38:36.382Z,5.13
2023-06-19T19:41:04.023Z,4.65
2023-06-19T19:43:31.486Z,4.65
2023-06-19T19:45:59.036Z,4.60
2023-06-19T19:48:26.450Z,4.82
2023-06-19T19:50:53.894Z,5.10
2023-06-19T19:53:21.277Z,4.80
2023-06-19T19:55:48.683Z,4.95
2023-06-19T19:58:16.084Z,5.10
2023-06-19T20:00:48.674Z,5.47
2023-06-19T20:03:16.135Z,5.10
2023-06-19T20:05:43.716Z,5.40
2023-06-19T20:08:11.141Z,5.30
2023-06-19T20:10:38.550Z,4.82
2023-06-19T20:13:05.930Z,5.30
2023-06-19T20:15:33.635Z,5.70
2023-06-19T20:18:01.055Z,5.63
2023-06-19T20:20:28.619Z,5.22
2023-06-19T20:22:57.895Z,5.40
2023-06-19T20:25:25.293Z,5.40
2023-06-19T20:28:07.499Z,4.93
2023-06-19T20:30:35.802Z,5.38
2023-06-19T20:33:03.335Z,5.10
2023-06-19T20:35:30.864Z,5.68
2023-06-19T20:37:58.193Z,5.72
2023-06-19T20:40:26.907Z,5.30
2023-06-19T20:42:54.519Z,5.30
2023-06-19T20:45:25.179Z,5.50
2023-06-19T20:47:53.514Z,5.30
2023-06-19T20:50:21.350Z,5.00
2023-06-19T20:52:48.770Z,5.78
2023-06-19T20:55:17.342Z,5.30
2023-06-19T20:57:44.869Z,5.50
2023-06-19T21:00:13.543Z,5.63
2023-06-19T21:02:41.413Z,5.95
2023-06-19T21:05:10.027Z,6.03
2023-06-19T21:07:37.395Z,6.00
2023-06-19T21:10:04.971Z,5.50
2023-06-19T21:12:32.621Z,5.82
2023-06-19T21:14:59.984Z,5.80
2023-06-19T21:17:27.400Z,6.30
2023-06-19T21:19:54.844Z,5.53
2023-06-19T21:22:22.265Z,5.45
2023-06-19T21:24:49.782Z,5.40
2023-06-19T21:27:17.181Z,5.20
2023-06-19T21:29:45.084Z,5.70
2023-06-19T21:32:12.510Z,6.15
2023-06-19T21:34:39.930Z,6.30
2023-06-19T21:37:07.562Z,6.05
2023-06-19T21:39:34.941Z,6.72
2023-06-19T21:42:02.326Z,5.78
2023-06-19T21:44:29.668Z,5.80
2023-06-19T21:46:57.029Z,6.03
2023-06-19T21:49:25.364Z,6.28
2023-06-19T21:51:52.764Z,5.57
2023-06-19T21:54:20.164Z,6.45
2023-06-19T21:56:47.831Z,5.63
2023-06-19T21:59:15.169Z,5.88
2023-06-19T22:01:42.506Z,6.18
2023-06-19T22:04:13.625Z,6.07
2023-06-19T22:06:40.993Z,5.78
2023-06-19T22:09:08.367Z,6.07
2023-06-19T22:11:35.816Z,6.10
2023-06-19T22:14:03.169Z,6.30
2023-06-19T22:16:30.644Z,6.00
2023-06-19T22:19:03.444Z,6.32
2023-06-19T22:21:30.786Z,6.47
2023-06-19T22:23:58.183Z,5.88
2023-06-19T22:26:25.644Z,6.47
2023-06-19T22:28:53.018Z,6.25
2023-06-19T22:31:20.394Z,5.50
2023-06-19T22:33:47.791Z,6.20
2023-06-19T22:36:15.936Z,6.13
2023-06-19T22:38:43.372Z,5.65
2023-06-19T22:41:10.795Z,6.07
2023-06-19T22:43:38.180Z,5.75
2023-06-19T22:46:05.740Z,5.80
2023-06-19T22:48:33.210Z,6.35
2023-06-19T22:51:01.280Z,5.63
2023-06-19T22:53:31.848Z,5.90
2023-06-19T22:55:59.267Z,5.97
2023-06-19T22:58:26.650Z,5.30
2023-06-19T23:00:54.448Z,6.18
2023-06-19T23:03:22.752Z,5.20
2023-06-19T23:05:50.491Z,6.05
2023-06-19T23:08:18.190Z,5.75
2023-06-19T23:10:45.548Z,5.90
2023-06-19T23:13:13.401Z,5.30
2023-06-19T23:15:40.777Z,5.50
2023-06-19T23:18:08.291Z,5.60
2023-06-19T23:20:35.751Z,5.78
2023-06-19T23:23:06.427Z,5.20
2023-06-19T23:25:34.759Z,5.22
2023-06-19T23:28:02.172Z,5.45
2023-06-19T23:30:29.553Z,6.05
2023-06-19T23:32:57.005Z,5.50
2023-06-19T23:35:25.182Z,4.88
2023-06-19T23:37:52.825Z,5.65
2023-06-19T23:40:20.162Z,5.57
2023-06-19T23:42:47.567Z,5.32
2023-06-19T23:45:14.951Z,5.70
2023-06-19T23:47:42.383Z,5.63
2023-06-19T23:50:09.971Z,4.95
2023-06-19T23:52:43.832Z,5.53
2023-06-19T23:55:11.958Z,5.35
2023-06-19T23:57:39.438Z,5.07
